Terminal Aerodrome Forecast
Issued by NWS

Home | Current Version | Previous Version | Text Only | Print | Product List | Glossary On
Versions: 1 2 3 4 5 6 7 8 9 10 11 12 13 14 15 16 17 18 19 20
000
FTAK31 PAJN 310500
TAFAKT
TAF
PAKT 310522Z 3106/0106 10005KT P6SM SCT020 BKN040 OVC060
     FM311100 VRB03KT 6SM -RA SCT015 OVC025
     FM311500 VRB03KT 4SM -RA BR SCT008 OVC025
     FM312000 14008G19KT 4SM -RA BR BKN015 OVC025
     FM010200 14009G13KT 5SM -RA BR SCT015 OVC020
      AMD LTD TO CLD VIS AND WIND 3106/3115=

USA.gov is the U.S. government's official web portal to all federal, state and local government web resources and services.